createdAt,value
2022-07-28T00:00:54.253Z,55.44
2022-07-28T00:03:21.201Z,55.13
2022-07-28T00:05:49.476Z,55.74
2022-07-28T00:08:17.160Z,56.02
2022-07-28T00:10:44.230Z,56.10
2022-07-28T00:13:11.252Z,55.84
2022-07-28T00:15:38.317Z,55.97
2022-07-28T00:18:05.201Z,56.05
2022-07-28T00:20:32.167Z,55.59
2022-07-28T00:22:59.090Z,56.10
2022-07-28T00:25:26.035Z,56.19
2022-07-28T00:27:53.394Z,56.13
2022-07-28T00:30:20.492Z,55.92
2022-07-28T00:32:47.628Z,56.00
2022-07-28T00:35:14.938Z,56.07
2022-07-28T00:37:42.934Z,56.03
2022-07-28T00:40:10.508Z,56.10
2022-07-28T00:42:37.573Z,56.24
2022-07-28T00:45:05.327Z,56.45
2022-07-28T00:47:33.701Z,56.91
2022-07-28T00:50:03.053Z,56.59
2022-07-28T00:52:30.321Z,56.61
2022-07-28T00:54:58.409Z,57.00
2022-07-28T00:57:25.289Z,56.92
2022-07-28T00:59:52.164Z,57.18
2022-07-28T01:02:19.821Z,57.26
2022-07-28T01:04:47.426Z,57.39
2022-07-28T01:07:34.842Z,57.27
2022-07-28T01:10:10.604Z,57.84
2022-07-28T01:13:00.300Z,57.46
2022-07-28T01:15:36.701Z,57.79
2022-07-28T01:18:10.471Z,58.31
2022-07-28T01:20:47.900Z,57.90
2022-07-28T01:23:33.251Z,57.92
2022-07-28T01:26:30.490Z,58.25
2022-07-28T01:29:28.060Z,58.52
2022-07-28T01:32:08.598Z,58.87
2022-07-28T01:34:52.237Z,58.64
2022-07-28T01:37:25.006Z,59.01
2022-07-28T01:39:56.165Z,59.44
2022-07-28T01:42:27.782Z,59.60
2022-07-28T01:44:57.757Z,59.85
2022-07-28T01:47:28.053Z,59.52
2022-07-28T01:49:56.932Z,60.08
2022-07-28T01:52:25.104Z,60.42
2022-07-28T01:54:53.691Z,60.93
2022-07-28T01:57:21.376Z,60.36
2022-07-28T01:59:49.765Z,60.87
2022-07-28T02:02:18.815Z,60.39
2022-07-28T02:04:48.334Z,60.54
2022-07-28T02:07:17.979Z,60.66
2022-07-28T02:09:47.231Z,60.34
2022-07-28T02:12:17.107Z,60.13
2022-07-28T02:14:48.683Z,60.25
2022-07-28T02:17:19.606Z,60.48
2022-07-28T02:19:48.707Z,60.96
2022-07-28T02:22:17.008Z,60.96
2022-07-28T02:24:45.540Z,60.94
2022-07-28T02:27:21.110Z,61.38
2022-07-28T02:29:51.641Z,61.15
2022-07-28T02:32:40.973Z,60.98
2022-07-28T02:35:44.769Z,61.12
2022-07-28T02:38:24.645Z,61.82
2022-07-28T02:40:59.571Z,61.68
2022-07-28T02:43:49.425Z,62.24
2022-07-28T02:46:22.196Z,61.47
2022-07-28T02:48:52.405Z,61.99
2022-07-28T02:51:23.460Z,61.76
2022-07-28T02:53:52.032Z,61.89
2022-07-28T02:56:19.948Z,61.54
2022-07-28T02:58:47.250Z,61.45
2022-07-28T03:01:18.277Z,61.76
2022-07-28T03:03:48.210Z,61.93
2022-07-28T03:06:20.315Z,61.01
2022-07-28T03:08:57.510Z,60.70
2022-07-28T03:11:24.834Z,60.48
2022-07-28T03:13:52.023Z,60.01
2022-07-28T03:16:19.341Z,60.05
2022-07-28T03:18:46.547Z,59.58
2022-07-28T03:21:13.436Z,59.84
2022-07-28T03:23:43.141Z,59.24
2022-07-28T03:26:16.407Z,59.10
2022-07-28T03:28:44.972Z,58.65
2022-07-28T03:31:13.609Z,58.97
2022-07-28T03:33:40.897Z,59.62
2022-07-28T03:36:15.548Z,59.52
2022-07-28T03:38:54.048Z,58.83
2022-07-28T03:41:22.183Z,58.88
2022-07-28T03:43:50.312Z,59.01
2022-07-28T03:46:17.553Z,58.83
2022-07-28T03:48:44.798Z,59.09
2022-07-28T03:51:12.103Z,59.07
2022-07-28T03:53:40.386Z,59.28
2022-07-28T03:56:07.289Z,59.12
2022-07-28T03:58:34.402Z,59.15
2022-07-28T04:01:01.344Z,59.25
2022-07-28T04:03:42.726Z,58.93
2022-07-28T04:06:14.007Z,59.15
2022-07-28T04:08:41.294Z,59.28
2022-07-28T04:11:08.407Z,59.05
2022-07-28T04:13:36.749Z,59.01
2022-07-28T04:16:04.410Z,58.63
2022-07-28T04:18:34.385Z,58.61
2022-07-28T04:21:04.468Z,58.99
2022-07-28T04:23:31.464Z,59.15
2022-07-28T04:26:17.557Z,59.57
2022-07-28T04:29:03.422Z,58.84
2022-07-28T04:31:30.811Z,59.06
2022-07-28T04:33:57.918Z,59.06
2022-07-28T04:36:26.211Z,57.35
2022-07-28T04:38:54.232Z,57.34
2022-07-28T04:41:21.150Z,56.83
2022-07-28T04:43:48.466Z,57.61
2022-07-28T04:46:15.570Z,58.05
2022-07-28T04:48:43.136Z,56.97
2022-07-28T04:51:10.333Z,56.74
2022-07-28T04:53:38.960Z,57.00
2022-07-28T04:56:06.058Z,55.65
2022-07-28T04:58:33.154Z,55.48
2022-07-28T05:01:00.247Z,56.18
2022-07-28T05:03:27.188Z,56.13
2022-07-28T05:05:55.133Z,57.55
2022-07-28T05:08:26.333Z,55.38
2022-07-28T05:10:55.157Z,54.94
2022-07-28T05:13:22.270Z,55.19
2022-07-28T05:15:49.471Z,55.78
2022-07-28T05:18:16.723Z,55.38
2022-07-28T05:20:43.593Z,55.15
2022-07-28T05:23:11.689Z,59.87
2022-07-28T05:25:39.131Z,55.81
2022-07-28T05:28:05.990Z,56.00
2022-07-28T05:30:33.013Z,56.92
2022-07-28T05:33:01.863Z,56.93
2022-07-28T05:35:29.833Z,56.42
2022-07-28T05:37:57.001Z,56.88
2022-07-28T05:40:23.873Z,56.94
2022-07-28T05:42:50.740Z,56.89
2022-07-28T05:45:17.957Z,56.79
2022-07-28T05:47:48.023Z,57.19
2022-07-28T05:50:16.973Z,57.32
2022-07-28T05:52:44.941Z,58.02
2022-07-28T05:55:12.235Z,58.35
2022-07-28T05:57:40.207Z,59.21
2022-07-28T06:00:19.584Z,59.44
2022-07-28T06:02:49.578Z,59.32
2022-07-28T06:05:18.116Z,58.96
2022-07-28T06:07:46.599Z,59.76
2022-07-28T06:10:15.988Z,60.18
2022-07-28T06:12:44.475Z,60.33
2022-07-28T06:15:23.202Z,59.50
2022-07-28T06:17:52.707Z,58.26
2022-07-28T06:20:21.608Z,58.09
2022-07-28T06:22:51.244Z,57.21
2022-07-28T06:25:20.412Z,57.74
2022-07-28T06:27:48.916Z,57.91
2022-07-28T06:30:16.568Z,58.55
2022-07-28T06:32:44.392Z,57.42
2022-07-28T06:35:14.772Z,55.83
2022-07-28T06:37:44.805Z,56.50
2022-07-28T06:40:13.105Z,56.52
2022-07-28T06:42:42.510Z,54.52
2022-07-28T06:45:10.430Z,55.36
2022-07-28T06:47:53.234Z,53.97
2022-07-28T06:50:26.135Z,53.78
2022-07-28T06:52:58.715Z,52.93
2022-07-28T06:55:31.330Z,52.94
2022-07-28T06:58:02.391Z,53.05
2022-07-28T07:00:30.153Z,53.59
2022-07-28T07:03:00.601Z,53.39
2022-07-28T07:05:32.465Z,51.75
2022-07-28T07:08:00.049Z,53.36
2022-07-28T07:10:27.964Z,53.81
2022-07-28T07:12:55.367Z,52.31
2022-07-28T07:15:22.574Z,52.66
2022-07-28T07:17:49.755Z,52.88
2022-07-28T07:20:18.398Z,52.44
2022-07-28T07:22:47.340Z,52.19
2022-07-28T07:25:18.695Z,51.58
2022-07-28T07:27:46.383Z,51.38
2022-07-28T07:30:14.849Z,52.42
2022-07-28T07:32:42.202Z,53.22
2022-07-28T07:35:09.989Z,52.01
2022-07-28T07:37:37.709Z,52.66
2022-07-28T07:40:05.901Z,51.58
2022-07-28T07:42:32.941Z,52.11
2022-07-28T07:44:59.855Z,50.80
2022-07-28T07:47:26.978Z,51.40
2022-07-28T07:49:54.156Z,49.82
2022-07-28T07:52:21.100Z,50.23
2022-07-28T07:54:48.554Z,50.19
2022-07-28T07:57:15.624Z,50.88
2022-07-28T07:59:42.655Z,51.28
2022-07-28T08:02:09.842Z,51.32
2022-07-28T08:04:37.784Z,50.59
2022-07-28T08:07:06.481Z,50.37
2022-07-28T08:09:34.079Z,49.89
2022-07-28T08:12:01.334Z,49.62
2022-07-28T08:14:29.629Z,49.71
2022-07-28T08:16:59.265Z,49.18
2022-07-28T08:19:26.799Z,50.11
2022-07-28T08:21:55.474Z,50.66
2022-07-28T08:24:33.144Z,51.25
2022-07-28T08:27:01.999Z,50.90
2022-07-28T08:29:29.452Z,50.96
2022-07-28T08:31:56.729Z,49.76
2022-07-28T08:34:31.186Z,50.47
2022-07-28T08:37:02.142Z,50.78
2022-07-28T08:39:30.069Z,50.22
2022-07-28T08:42:07.176Z,50.37
2022-07-28T08:44:51.534Z,49.26
2022-07-28T08:47:20.133Z,49.56
2022-07-28T08:49:48.998Z,49.03
2022-07-28T08:52:20.434Z,48.34
2022-07-28T08:54:49.013Z,47.44
2022-07-28T08:57:30.787Z,46.93
2022-07-28T08:59:57.773Z,46.17
2022-07-28T09:02:29.395Z,48.90
2022-07-28T09:04:58.156Z,48.13
2022-07-28T09:07:26.905Z,47.97
2022-07-28T09:10:02.249Z,46.64
2022-07-28T09:12:29.772Z,45.57
2022-07-28T09:14:57.020Z,46.59
2022-07-28T09:17:24.255Z,45.86
2022-07-28T09:19:51.383Z,46.57
2022-07-28T09:22:18.306Z,46.06
2022-07-28T09:24:45.836Z,47.28
2022-07-28T09:27:14.601Z,45.82
2022-07-28T09:29:49.286Z,45.32
2022-07-28T09:32:19.010Z,47.17
2022-07-28T09:34:47.809Z,47.52
2022-07-28T09:37:27.029Z,45.93
2022-07-28T09:39:59.526Z,45.93
2022-07-28T09:42:44.651Z,46.03
2022-07-28T09:45:27.012Z,45.19
2022-07-28T09:48:20.623Z,46.73
2022-07-28T09:50:47.660Z,44.80
2022-07-28T09:53:22.395Z,44.75
2022-07-28T09:56:01.225Z,44.70
2022-07-28T09:58:32.580Z,45.61
2022-07-28T10:01:09.313Z,45.39
2022-07-28T10:03:41.133Z,44.42
2022-07-28T10:06:09.117Z,44.36
2022-07-28T10:08:44.049Z,44.00
2022-07-28T10:11:12.440Z,43.80
2022-07-28T10:14:09.062Z,46.75
2022-07-28T10:16:42.353Z,48.37
2022-07-28T10:19:10.032Z,47.69
2022-07-28T10:21:44.268Z,45.59
2022-07-28T10:24:21.017Z,46.81
2022-07-28T10:26:48.657Z,47.22
2022-07-28T10:29:18.557Z,47.96
2022-07-28T10:31:46.324Z,47.68
2022-07-28T10:34:24.787Z,47.69
2022-07-28T10:36:55.531Z,47.32
2022-07-28T10:39:25.289Z,46.45
2022-07-28T10:41:53.095Z,47.87
2022-07-28T10:44:20.167Z,47.54
2022-07-28T10:46:47.523Z,47.67
2022-07-28T10:49:14.886Z,48.18
2022-07-28T10:52:02.669Z,46.42
2022-07-28T10:54:41.161Z,46.83
2022-07-28T10:57:12.290Z,47.12
2022-07-28T10:59:45.322Z,46.82
2022-07-28T11:02:43.800Z,45.24
2022-07-28T11:05:27.837Z,44.82
2022-07-28T11:07:55.558Z,46.08
2022-07-28T11:10:23.359Z,44.59
2022-07-28T11:12:53.281Z,45.03
2022-07-28T11:15:28.400Z,44.77
2022-07-28T11:18:04.360Z,46.83
2022-07-28T11:20:53.217Z,45.36
2022-07-28T11:23:39.454Z,44.90
2022-07-28T11:26:24.337Z,45.06
2022-07-28T11:28:57.618Z,45.03
2022-07-28T11:31:46.535Z,45.09
2022-07-28T11:34:16.450Z,44.74
2022-07-28T11:37:15.140Z,44.87
2022-07-28T11:39:44.074Z,44.32
2022-07-28T11:42:31.072Z,44.62
2022-07-28T11:45:35.102Z,46.02
2022-07-28T11:48:15.457Z,47.18
2022-07-28T11:50:42.935Z,46.98
2022-07-28T11:53:10.656Z,46.28
2022-07-28T11:55:49.375Z,45.01
2022-07-28T11:58:25.801Z,46.01
2022-07-28T12:01:17.861Z,45.14
2022-07-28T12:03:54.947Z,45.57
2022-07-28T12:06:35.693Z,45.41
2022-07-28T12:09:04.507Z,46.52
2022-07-28T12:11:35.928Z,47.18
2022-07-28T12:14:05.496Z,46.58
2022-07-28T12:16:34.027Z,47.34
2022-07-28T12:19:03.277Z,46.95
2022-07-28T12:21:49.607Z,45.83
2022-07-28T12:24:21.122Z,45.57
2022-07-28T12:26:50.279Z,45.26
2022-07-28T12:29:19.807Z,46.02
2022-07-28T12:32:01.081Z,44.38
2022-07-28T12:34:33.449Z,43.79
2022-07-28T12:37:02.369Z,44.48
2022-07-28T12:39:31.022Z,43.11
2022-07-28T12:42:09.595Z,42.92
2022-07-28T12:44:38.083Z,43.68
2022-07-28T12:47:10.786Z,44.31
2022-07-28T12:49:39.738Z,44.80
2022-07-28T12:52:18.803Z,44.95
2022-07-28T12:54:53.504Z,43.04
2022-07-28T12:57:51.031Z,43.06
2022-07-28T13:00:26.091Z,42.48
2022-07-28T13:02:56.450Z,43.29
2022-07-28T13:05:31.326Z,42.47
2022-07-28T13:08:07.154Z,43.98
2022-07-28T13:10:33.976Z,44.00
2022-07-28T13:13:06.515Z,42.57
2022-07-28T13:15:33.820Z,42.23
2022-07-28T13:18:00.776Z,42.68
2022-07-28T13:20:28.225Z,43.09
2022-07-28T13:22:57.502Z,41.42
2022-07-28T13:25:24.644Z,41.68
2022-07-28T13:27:55.435Z,41.58
2022-07-28T13:30:23.561Z,40.72
2022-07-28T13:32:50.617Z,39.15
2022-07-28T13:35:18.951Z,39.52
2022-07-28T13:37:47.714Z,39.14
2022-07-28T13:40:14.664Z,38.12
2022-07-28T13:42:53.128Z,36.53
2022-07-28T13:45:24.154Z,34.44
2022-07-28T13:47:52.023Z,34.47
2022-07-28T13:50:19.709Z,33.65
2022-07-28T13:52:47.192Z,32.08
2022-07-28T13:55:16.056Z,32.31
2022-07-28T13:57:46.597Z,32.26
2022-07-28T14:00:17.987Z,30.33
2022-07-28T14:02:48.642Z,32.86
2022-07-28T14:05:16.183Z,30.34
2022-07-28T14:07:48.785Z,30.25
2022-07-28T14:10:19.368Z,31.73
2022-07-28T14:12:46.627Z,32.60
2022-07-28T14:15:13.588Z,31.37
2022-07-28T14:17:43.849Z,30.51
2022-07-28T14:20:14.033Z,30.91
2022-07-28T14:22:41.736Z,31.06
2022-07-28T14:25:09.555Z,31.83
2022-07-28T14:27:36.477Z,30.19
2022-07-28T14:30:04.424Z,29.41
2022-07-28T14:32:34.524Z,29.29
2022-07-28T14:35:01.956Z,29.06
2022-07-28T14:37:36.223Z,29.88
2022-07-28T14:40:14.628Z,29.52
2022-07-28T14:42:41.723Z,28.68
2022-07-28T14:45:08.997Z,28.42
2022-07-28T14:47:45.132Z,28.74
2022-07-28T14:50:12.798Z,28.87
2022-07-28T14:52:39.783Z,28.93
2022-07-28T14:55:06.956Z,28.13
2022-07-28T14:57:51.882Z,28.81
2022-07-28T15:00:21.986Z,28.67
2022-07-28T15:02:48.920Z,28.62
2022-07-28T15:05:15.759Z,28.32
2022-07-28T15:07:42.615Z,28.42
2022-07-28T15:10:10.593Z,29.09
2022-07-28T15:12:37.999Z,28.78
2022-07-28T15:15:05.701Z,28.60
2022-07-28T15:17:32.775Z,30.78
2022-07-28T15:19:59.609Z,29.36
2022-07-28T15:22:26.636Z,28.81
2022-07-28T15:24:54.136Z,29.25
2022-07-28T15:27:20.882Z,29.68
2022-07-28T15:29:52.276Z,29.94
2022-07-28T15:32:20.401Z,30.32
2022-07-28T15:34:55.302Z,30.87
2022-07-28T15:37:21.988Z,30.26
2022-07-28T15:39:48.874Z,30.12
2022-07-28T15:42:15.602Z,29.85
2022-07-28T15:44:42.557Z,29.16
2022-07-28T15:47:09.364Z,30.45
2022-07-28T15:49:36.197Z,31.10
2022-07-28T15:52:04.365Z,31.02
2022-07-28T15:54:31.366Z,30.65
2022-07-28T15:56:58.250Z,31.32
2022-07-28T15:59:26.738Z,30.97
2022-07-28T16:02:17.445Z,30.60
2022-07-28T16:04:47.190Z,31.02
2022-07-28T16:07:22.263Z,29.58
2022-07-28T16:09:51.246Z,30.80
2022-07-28T16:12:18.275Z,31.34
2022-07-28T16:14:45.176Z,31.04
2022-07-28T16:17:12.294Z,32.30
2022-07-28T16:19:48.884Z,31.80
2022-07-28T16:22:18.785Z,32.93
2022-07-28T16:24:47.416Z,34.18
2022-07-28T16:27:14.887Z,34.29
2022-07-28T16:29:42.662Z,35.15
2022-07-28T16:32:09.996Z,34.92
2022-07-28T16:34:36.848Z,35.20
2022-07-28T16:37:04.973Z,35.72
2022-07-28T16:39:34.286Z,35.02
2022-07-28T16:42:02.930Z,37.27
2022-07-28T16:44:30.361Z,38.41
2022-07-28T16:46:57.152Z,38.16
2022-07-28T16:49:24.610Z,38.62
2022-07-28T16:51:51.517Z,38.82
2022-07-28T16:54:18.899Z,38.89
2022-07-28T16:56:46.169Z,38.92
2022-07-28T16:59:12.934Z,39.54
2022-07-28T17:01:45.314Z,40.13
2022-07-28T17:04:15.158Z,40.69
2022-07-28T17:06:42.385Z,40.62
2022-07-28T17:09:09.603Z,40.70
2022-07-28T17:11:36.403Z,40.07
2022-07-28T17:14:04.717Z,41.29
2022-07-28T17:16:32.075Z,41.33
2022-07-28T17:18:59.507Z,41.36
2022-07-28T17:21:26.935Z,41.77
2022-07-28T17:23:53.886Z,42.32
2022-07-28T17:29:08.793Z,41.94
2022-07-28T17:31:36.397Z,42.58
2022-07-28T17:34:03.284Z,42.30
2022-07-28T17:36:34.017Z,43.63
2022-07-28T17:39:01.641Z,43.39
2022-07-28T17:41:28.899Z,43.58
2022-07-28T17:43:55.754Z,44.99
2022-07-28T17:46:22.934Z,45.93
2022-07-28T17:48:53.389Z,45.35
2022-07-28T17:51:20.214Z,45.19
2022-07-28T17:53:48.755Z,45.90
2022-07-28T17:56:16.859Z,45.93
2022-07-28T17:58:44.335Z,46.55
2022-07-28T18:01:12.724Z,46.17
2022-07-28T18:03:56.691Z,46.77
2022-07-28T18:06:25.423Z,46.94
2022-07-28T18:08:52.358Z,48.23
2022-07-28T18:11:19.187Z,47.82
2022-07-28T18:14:04.508Z,48.55
2022-07-28T18:16:35.371Z,49.05
2022-07-28T18:19:05.206Z,48.82
2022-07-28T18:21:32.242Z,49.11
2022-07-28T18:24:01.823Z,50.00
2022-07-28T18:26:28.568Z,50.11
2022-07-28T18:28:55.522Z,49.63
2022-07-28T18:31:22.538Z,50.20
2022-07-28T18:33:49.464Z,51.08
2022-07-28T18:36:16.636Z,51.55
2022-07-28T18:38:43.815Z,51.59
2022-07-28T18:41:10.720Z,51.50
2022-07-28T18:43:37.484Z,51.58
2022-07-28T18:46:04.407Z,51.93
2022-07-28T18:48:31.217Z,52.27
2022-07-28T18:50:58.842Z,52.69
2022-07-28T18:53:26.610Z,52.70
2022-07-28T18:55:53.307Z,52.81
2022-07-28T18:58:20.155Z,52.67
2022-07-28T19:00:47.411Z,53.07
2022-07-28T19:03:14.243Z,53.49
2022-07-28T19:05:45.763Z,54.03
2022-07-28T19:08:13.195Z,53.84
2022-07-28T19:10:40.452Z,54.66
2022-07-28T19:13:12.779Z,54.64
2022-07-28T19:15:41.139Z,54.89
2022-07-28T19:18:10.407Z,55.11
2022-07-28T19:20:40.002Z,55.87
2022-07-28T19:23:07.079Z,56.48
2022-07-28T19:25:36.376Z,56.51
2022-07-28T19:28:04.561Z,56.32
2022-07-28T19:30:32.470Z,56.51
2022-07-28T19:33:00.269Z,56.87
2022-07-28T19:35:27.301Z,57.77
2022-07-28T19:37:56.418Z,58.37
2022-07-28T19:40:25.299Z,57.82
2022-07-28T19:42:53.426Z,58.90
2022-07-28T19:45:20.244Z,58.49
2022-07-28T19:47:47.328Z,58.50
2022-07-28T19:50:16.787Z,58.77
2022-07-28T19:52:43.567Z,59.05
2022-07-28T19:55:10.259Z,58.77
2022-07-28T19:57:37.200Z,59.16
2022-07-28T20:00:07.301Z,59.38
2022-07-28T20:02:34.371Z,59.83
2022-07-28T20:05:01.189Z,60.09
2022-07-28T20:07:29.143Z,59.96
2022-07-28T20:09:56.067Z,60.41
2022-07-28T20:12:22.883Z,61.05
2022-07-28T20:14:50.438Z,60.86
2022-07-28T20:17:37.039Z,61.10
2022-07-28T20:20:05.978Z,61.40
2022-07-28T20:22:32.894Z,61.57
2022-07-28T20:24:59.698Z,61.54
2022-07-28T20:27:26.694Z,62.16
2022-07-28T20:29:53.666Z,62.19
2022-07-28T20:32:20.569Z,62.73
2022-07-28T20:34:48.270Z,62.72
2022-07-28T20:37:24.513Z,62.88
2022-07-28T20:40:02.106Z,63.37
2022-07-28T20:42:28.820Z,63.47
2022-07-28T20:44:55.565Z,63.76
2022-07-28T20:47:23.338Z,64.17
2022-07-28T20:49:50.958Z,64.51
2022-07-28T20:52:17.874Z,64.57
2022-07-28T20:54:44.853Z,64.85
2022-07-28T20:57:11.924Z,64.65
2022-07-28T20:59:38.987Z,64.85
2022-07-28T21:02:05.981Z,65.24
2022-07-28T21:04:32.747Z,65.32
2022-07-28T21:07:02.178Z,65.40
2022-07-28T21:09:30.982Z,65.82
2022-07-28T21:11:57.834Z,66.31
2022-07-28T21:14:24.617Z,66.40
2022-07-28T21:16:51.436Z,66.58
2022-07-28T21:19:18.260Z,67.02
2022-07-28T21:21:45.085Z,67.49
2022-07-28T21:24:12.083Z,67.72
2022-07-28T21:26:41.988Z,67.68
2022-07-28T21:29:12.572Z,67.69
2022-07-28T21:32:04.811Z,67.72
2022-07-28T21:34:28.397Z,67.68
2022-07-28T21:36:55.600Z,67.71
2022-07-28T21:39:23.226Z,67.96
2022-07-28T21:41:49.909Z,68.17
2022-07-28T21:44:16.804Z,67.97
2022-07-28T21:46:45.699Z,68.01
2022-07-28T21:49:12.934Z,68.68
2022-07-28T21:51:39.991Z,68.33
2022-07-28T21:54:07.052Z,68.45
2022-07-28T21:56:34.433Z,68.79
2022-07-28T21:59:02.075Z,69.39
2022-07-28T22:01:28.928Z,69.82
2022-07-28T22:03:55.819Z,69.97
2022-07-28T22:06:23.206Z,70.22
2022-07-28T22:08:53.576Z,70.38
2022-07-28T22:11:22.311Z,70.61
2022-07-28T22:13:49.372Z,71.01
2022-07-28T22:16:16.198Z,71.00
2022-07-28T22:18:42.977Z,71.26
2022-07-28T22:21:09.884Z,71.47
2022-07-28T22:23:36.601Z,71.82
2022-07-28T22:26:03.732Z,72.20
2022-07-28T22:28:30.971Z,72.17
2022-07-28T22:30:59.000Z,72.29
2022-07-28T22:33:38.034Z,72.51
2022-07-28T22:36:06.631Z,72.09
2022-07-28T22:38:33.368Z,72.58
2022-07-28T22:41:00.179Z,73.18
2022-07-28T22:43:26.910Z,73.13
2022-07-28T22:45:53.891Z,73.09
2022-07-28T22:48:20.706Z,72.87
2022-07-28T22:50:47.429Z,72.93
2022-07-28T22:53:14.302Z,73.11
2022-07-28T22:55:41.115Z,72.89
2022-07-28T22:58:07.856Z,73.06
2022-07-28T23:00:36.484Z,73.77
2022-07-28T23:03:04.960Z,73.57
2022-07-28T23:05:32.197Z,73.27
2022-07-28T23:07:59.155Z,73.21
2022-07-28T23:10:26.503Z,73.32
2022-07-28T23:12:56.167Z,73.98
2022-07-28T23:15:40.411Z,74.22
2022-07-28T23:18:13.591Z,73.98
2022-07-28T23:20:41.121Z,73.77
2022-07-28T23:23:08.079Z,73.86
2022-07-28T23:25:42.935Z,74.25
2022-07-28T23:28:11.213Z,74.35
2022-07-28T23:30:38.478Z,74.47
2022-07-28T23:33:06.047Z,74.71
2022-07-28T23:35:33.836Z,74.51
2022-07-28T23:38:00.674Z,74.42
2022-07-28T23:40:27.703Z,74.21
2022-07-28T23:42:54.577Z,74.39
2022-07-28T23:45:21.503Z,74.57
2022-07-28T23:47:48.537Z,74.72
2022-07-28T23:50:15.500Z,74.30
2022-07-28T23:52:42.506Z,74.33
2022-07-28T23:55:09.598Z,74.58
2022-07-28T23:57:36.634Z,74.62
